メインページ
METAR-TAF:

METAR-TAF

空港 :

Alma, ミシガン州, アメリカ合衆国

緯度: 43-19-19N, 経度: 084-41-16W, 海抜: 229m

現時点の気象観測

当レポートは16分前の02:16(UTC)に作成
北/北西の風 4kt
気温 -3°C
湿度 68%
気圧 1028 hPa
視程: 16.1km
高度3200ftの雲は散在している

METAR: KAMN 070216Z AUTO 33004KT 10SM SCT032 M03/M08 A3035 RMK AO2 T10311081

時間: 21:32 (02:32 UTC)


TAF: 見つかりません

4,000以上の空港の気象観測と天気予報(METAR報とTAF報)

利用可能な観測所は地図上に黄色い丸と赤い丸で示す。

丸の上にカーソルを重ねると観測所名を参照できる。

次にクリックすると気象観測と天気予報を参照できる。

マップの切り替え:黒色「×」印の緑ボタンをクリックして拡大、「-」印の緑ボタンをクリックして縮小、緑色の三角印をクリックして隣りの地図に切り替え


METAR-TAF: